Padre Island — WDB4436 — position and weather

sailwx.info

Track history (hours):
 
Tides and Currents Weather Stations Pressure Air Temp Water Temp Dewpoint Dewpoint Depression Visibility Wind Speed Wind Dir Waves Ship Positions

Padre Island

Owner: Great Lakes Dredge & Dock Company, Oak Brook, IL. More information available from US FCC via Universal Licensing System and Coast Guard Vessel Documentation Center.

Last reported at 2016-Feb-13 01:33 UTC. Time now 2016-Feb-14 23:10 UTC.
Position N 31°51' W 080°44'.

Length 86 m; draft 19.6 m.

Type: Dredging. MMSI: 367525000.

Date/timePositionNaut miles runAvg speedWind from/ knotsBaromVisibWave heightAir tempDewpointWater temp
2016-Feb-13 01:33N 31°51' W 080°44'6 6.0
2016-Feb-13 00:33N 31°57' W 080°46'6 6.2
2016-Feb-12 23:33N 32°02' W 080°50'0 0.2
2016-Feb-12 22:33N 32°02' W 080°50'0 0.2
2016-Feb-12 21:33N 32°02' W 080°50'0 0.2
2016-Feb-12 20:33N 32°02' W 080°50'0 0.1
2016-Feb-12 19:33N 32°02' W 080°50'0 0.2
2016-Feb-12 18:33N 32°02' W 080°50'0 0.1
2016-Feb-12 17:33N 32°02' W 080°50'6 5.5
2016-Feb-12 16:29N 31°58' W 080°46'0 0.3
2016-Feb-12 15:34N 31°58' W 080°46'6 5.6
2016-Feb-12 14:33N 32°02' W 080°50'0 0.3
2016-Feb-12 13:33N 32°02' W 080°50'1 0.8
2016-Feb-12 12:34N 32°02' W 080°50'1 1.4
2016-Feb-12 11:33N 32°01' W 080°48'3 3.3
2016-Feb-12 10:33N 31°59' W 080°46'5 5.2
2016-Feb-12 09:33N 32°02' W 080°50'0 0.2
2016-Feb-12 08:34N 32°02' W 080°50'1 1.0
2016-Feb-12 07:34N 32°02' W 080°49'0 0.5
2016-Feb-12 06:33N 32°02' W 080°50'0 0.2
2016-Feb-12 05:33N 32°02' W 080°50'0 0.5
2016-Feb-12 04:33N 32°02' W 080°51'7 6.7
2016-Feb-12 03:33N 31°57' W 080°46'6 6.1
2016-Feb-12 02:33N 32°02' W 080°50'0 0.2
2016-Feb-12 01:33N 32°02' W 080°50'0 0.1
2016-Feb-12 00:33N 32°02' W 080°50'0 0.2
2016-Feb-11 23:33N 32°02' W 080°50'0 0.2
2016-Feb-11 22:33N 32°02' W 080°50'2 1.9
2016-Feb-11 21:33N 32°01' W 080°49'4 4.4
2016-Feb-11 20:33N 31°57' W 080°46'6 6.2
2016-Feb-11 19:33N 32°02' W 080°51'1 0.9
2016-Feb-11 18:33N 32°02' W 080°50'0 0.3
2016-Feb-11 17:33N 32°02' W 080°50'0 0.5
2016-Feb-11 16:33N 32°02' W 080°50'0 0.1
2016-Feb-11 15:33N 32°02' W 080°50'0 0.3
2016-Feb-11 14:33N 32°02' W 080°50'0 0.2
2016-Feb-11 13:33N 32°02' W 080°50'6 6.2
2016-Feb-11 12:33N 31°57' W 080°46'6 6.1
2016-Feb-11 11:33N 32°02' W 080°50'0 0.1
2016-Feb-11 10:33N 32°02' W 080°50'0 0.3
2016-Feb-11 09:33N 32°02' W 080°50'0 0.2
2016-Feb-11 08:33N 32°02' W 080°50'1 0.8
2016-Feb-11 07:33N 32°02' W 080°50'0 0.4
2016-Feb-11 06:33N 32°02' W 080°50'0 0.2
2016-Feb-11 05:33N 32°02' W 080°50'1 1.2
2016-Feb-11 04:33N 32°02' W 080°49'5 4.7
2016-Feb-11 03:33N 31°58' W 080°46'6 5.8
2016-Feb-11 02:33N 32°02' W 080°50'0 0.3
2016-Feb-11 01:33N 32°02' W 080°51'1 0.8
2016-Feb-11 00:33N 32°02' W 080°50'0 0.3
2016-Feb-10 23:33N 32°02' W 080°50'4 4.2
2016-Feb-10 22:33N 31°59' W 080°47'1 0.6
2016-Feb-10 21:33N 31°60' W 080°47'4 3.7
2016-Feb-10 20:33N 32°02' W 080°50'0 0.2
2016-Feb-10 19:33N 32°02' W 080°50'0 0.0
2016-Feb-10 18:33N 32°02' W 080°50'1 0.6
2016-Feb-10 17:33N 32°02' W 080°50'0 0.1
2016-Feb-10 16:34N 32°02' W 080°49'3 3.2
2016-Feb-10 15:33N 31°60' W 080°47'2 1.7
2016-Feb-10 14:33N 31°58' W 080°46'5 5.5
2016-Feb-10 13:33N 32°02' W 080°50'1 0.6
2016-Feb-10 12:33N 32°02' W 080°49'0 0.3
2016-Feb-10 11:33N 32°02' W 080°50'0 0.1
2016-Feb-10 10:33N 32°02' W 080°50'3 3.5
2016-Feb-10 09:33N 31°60' W 080°47'2 2.4
2016-Feb-10 08:34N 31°57' W 080°46'4 4.2
2016-Feb-10 07:33N 32°01' W 080°48'1 1.4
2016-Feb-10 06:33N 32°02' W 080°50'1 0.6
2016-Feb-10 05:33N 32°02' W 080°50'1 0.8
2016-Feb-10 04:33N 32°02' W 080°49'0 0.4
2016-Feb-10 03:33N 32°02' W 080°50'0 0.1
2016-Feb-10 02:33N 32°02' W 080°50'5 4.9
2016-Feb-10 01:34N 31°59' W 080°46'1 0.7
2016-Feb-10 00:33N 31°59' W 080°46'5 4.6
2016-Feb-09 23:33N 32°02' W 080°51'1 0.7
2016-Feb-09 22:33N 32°02' W 080°50'1 0.6
2016-Feb-09 21:33N 32°02' W 080°51'0 0.4
2016-Feb-09 20:33N 32°02' W 080°50'4 4.4
2016-Feb-09 19:33N 31°59' W 080°46'0 0.1
2016-Feb-09 18:33N 31°59' W 080°46'4 3.8
2016-Feb-09 17:33N 32°02' W 080°49'0 0.5
2016-Feb-09 16:33N 32°02' W 080°50'0 0.1
2016-Feb-09 15:33N 32°02' W 080°50'0 0.3
2016-Feb-09 14:33N 32°02' W 080°50'6 5.5
2016-Feb-09 13:33N 31°57' W 080°46'6 5.6
2016-Feb-09 12:33N 32°02' W 080°50'0 0.1
2016-Feb-09 11:33N 32°02' W 080°50'0 0.2
2016-Feb-09 10:33N 32°02' W 080°50'0 0.2
2016-Feb-09 09:33N 32°02' W 080°50'5 5.2
2016-Feb-09 08:33N 31°59' W 080°45'2 2.0
2016-Feb-09 07:33N 32°00' W 080°47'3 2.6
2016-Feb-09 06:34N 32°02' W 080°49'0 0.4
2016-Feb-09 05:33N 32°02' W 080°50'0 0.3
2016-Feb-09 04:33N 32°02' W 080°50'4 3.6
2016-Feb-09 03:33N 31°60' W 080°47'0 0.4
2016-Feb-09 02:33N 31°60' W 080°47'4 3.6
2016-Feb-09 01:33N 32°02' W 080°50'0 0.1
2016-Feb-09 00:33N 32°02' W 080°50'3 2.7
2016-Feb-08 23:33N 32°00' W 080°47'0 0.5
2016-Feb-08 22:33N 32°00' W 080°48'3 2.9
2016-Feb-08 21:33N 32°02' W 080°50'0 0.2
2016-Feb-08 20:33N 32°02' W 080°50'0 0.2
2016-Feb-08 19:33N 32°02' W 080°50'5 4.7
2016-Feb-08 18:33N 31°59' W 080°46'3 2.7
2016-Feb-08 17:33N 31°56' W 080°46'2 1.5
2016-Feb-08 16:33N 31°58' W 080°46'6 5.8
2016-Feb-08 15:33N 32°02' W 080°50'0 0.3
2016-Feb-08 14:33N 32°02' W 080°50'1 1.0
2016-Feb-08 13:33N 32°02' W 080°49'5 4.8
2016-Feb-08 12:31N 31°57' W 080°46'6 6.1
2016-Feb-08 11:33N 32°02' W 080°50'0 0.5
2016-Feb-08 10:33N 32°02' W 080°50'1 0.8
2016-Feb-08 09:34N 32°02' W 080°50'0 0.2
2016-Feb-08 08:33N 32°02' W 080°50'3 2.8
2016-Feb-08 07:33N 32°00' W 080°47'2 2.1
2016-Feb-08 06:33N 31°59' W 080°46'5 5.3
2016-Feb-08 05:33N 32°02' W 080°50'0 0.0
2016-Feb-08 04:33N 32°02' W 080°50'0 0.2
2016-Feb-08 03:33N 32°02' W 080°50'0 0.2
2016-Feb-08 02:33N 32°02' W 080°50'6 5.6
2016-Feb-08 01:33N 31°57' W 080°46'6 5.6
2016-Feb-08 00:33N 32°02' W 080°50'0 0.3
2016-Feb-07 23:33N 32°02' W 080°50'0 0.5
2016-Feb-07 22:33N 32°02' W 080°51'0 0.1
2016-Feb-07 21:33N 32°02' W 080°51'6 6.4
2016-Feb-07 20:33N 31°57' W 080°47'2 2.0
2016-Feb-07 19:33N 31°59' W 080°46'5 5.3
2016-Feb-07 18:33N 32°02' W 080°50'1 1.0
2016-Feb-07 17:33N 32°02' W 080°49'0 0.5
2016-Feb-07 16:33N 32°02' W 080°50'0 0.1
2016-Feb-07 15:33N 32°02' W 080°50'6 5.5
2016-Feb-07 14:28N 31°57' W 080°46'5 5.7
2016-Feb-07 13:33N 32°02' W 080°49'1 1.0
2016-Feb-07 12:33N 32°02' W 080°50'0 0.4
2016-Feb-07 11:33N 32°02' W 080°50'1 1.3
2016-Feb-07 10:34N 32°02' W 080°49'5 5.1
2016-Feb-07 09:33N 31°57' W 080°46'4 3.7
2016-Feb-07 08:33N 32°01' W 080°48'3 2.8
2016-Feb-07 07:33N 32°02' W 080°51'1 0.6
2016-Feb-07 06:33N 32°02' W 080°50'0 0.1
2016-Feb-07 05:33N 32°02' W 080°50'6 5.1
2016-Feb-07 04:26N 31°58' W 080°46'4 4.4
2016-Feb-07 03:33N 32°01' W 080°48'2 2.2
2016-Feb-07 02:34N 32°02' W 080°50'0 0.3
2016-Feb-07 01:33N 32°02' W 080°50'6 5.8
2016-Feb-07 00:33N 31°58' W 080°46'5 4.6
2016-Feb-06 23:33N 32°01' W 080°49'1 0.9
2016-Feb-06 22:33N 32°02' W 080°50'0 0.2
2016-Feb-06 21:33N 32°02' W 080°50'4 4.3
2016-Feb-06 20:33N 31°59' W 080°46'1 0.8
2016-Feb-06 19:33N 31°59' W 080°46'5 5.2
2016-Feb-06 18:33N 32°02' W 080°50'0 0.2
2016-Feb-06 17:33N 32°02' W 080°50'1 0.6
2016-Feb-06 16:33N 32°02' W 080°50'6 5.6
2016-Feb-06 15:33N 31°57' W 080°46'6 5.9
2016-Feb-06 14:33N 32°02' W 080°50'0 0.4
2016-Feb-06 13:33N 32°02' W 080°50'0 0.0
2016-Feb-06 12:32N 32°02' W 080°50'5 5.1
2016-Feb-06 11:34N 31°59' W 080°46'3 2.6
2016-Feb-06 10:33N 32°01' W 080°48'2 1.9
2016-Feb-06 09:33N 32°02' W 080°50'0 0.4
2016-Feb-06 08:33N 32°02' W 080°50'0 0.0
2016-Feb-06 07:33N 32°02' W 080°50'4 4.3
2016-Feb-06 06:33N 31°59' W 080°46'1 1.3
2016-Feb-06 05:33N 32°00' W 080°48'3 3.2
2016-Feb-06 04:33N 32°02' W 080°50'0 0.1
2016-Feb-06 03:33N 32°02' W 080°50'3 3.4
2016-Feb-06 02:33N 31°60' W 080°47'4 4.1
2016-Feb-06 01:33N 31°56' W 080°47'0 0.3
2016-Feb-06 00:33N 31°56' W 080°47'3 2.9
2016-Feb-05 23:34N 31°57' W 080°44'2 2.0
2016-Feb-05 22:34N 31°57' W 080°46'6 5.6
2016-Feb-05 21:34N 32°02' W 080°50'1 1.0
2016-Feb-05 20:33N 32°02' W 080°51'0 0.1
2016-Feb-05 19:34N 32°02' W 080°51'0 0.2
2016-Feb-05 18:34N 32°02' W 080°50'6 5.5
2016-Feb-05 17:32N 31°58' W 080°46'4 3.8
2016-Feb-05 16:34N 32°01' W 080°48'2 2.2
2016-Feb-05 15:33N 32°02' W 080°51'0 0.1
2016-Feb-05 14:34N 32°02' W 080°50'4 4.2
2016-Feb-05 13:33N 31°59' W 080°47'1 0.7
2016-Feb-05 12:34N 31°59' W 080°46'4 4.3
2016-Feb-05 11:33N 32°02' W 080°50'1 0.8
2016-Feb-05 10:34N 32°02' W 080°51'1 1.5
2016-Feb-05 09:34N 32°02' W 080°49'0 0.1
2016-Feb-05 08:34N 32°02' W 080°49'5 5.1
2016-Feb-05 07:34N 31°57' W 080°46'6 5.7
2016-Feb-05 06:33N 32°02' W 080°50'0 0.1
2016-Feb-05 05:34N 32°02' W 080°50'0 0.3
2016-Feb-05 04:34N 32°02' W 080°50'5 4.9
2016-Feb-05 03:34N 31°59' W 080°46'3 2.7
2016-Feb-05 02:33N 32°01' W 080°48'2 2.4
2016-Feb-05 01:34N 32°02' W 080°51'0 0.4
2016-Feb-05 00:34N 32°02' W 080°50'4 4.0
2016-Feb-04 23:34N 31°59' W 080°47'0 0.3
2016-Feb-04 22:34N 31°59' W 080°47'4 3.9
2016-Feb-04 21:32N 32°02' W 080°50'0 0.5
2016-Feb-04 20:34N 32°02' W 080°51'0 0.2
2016-Feb-04 19:34N 32°02' W 080°51'6 6.0
2016-Feb-04 18:32N 31°57' W 080°46'3 3.6
2016-Feb-04 17:33N 32°01' W 080°48'3 2.6
2016-Feb-04 16:33N 32°02' W 080°50'0 0.5
2016-Feb-04 15:33N 32°02' W 080°50'6 1.0
2016-Feb-04 09:34N 31°57' W 080°46'5 5.4
2016-Feb-04 08:33N 32°02' W 080°49'1 0.6
2016-Feb-04 07:33N 32°02' W 080°50'0 0.3
2016-Feb-04 06:33N 32°02' W 080°50'6 6.0
2016-Feb-04 05:34N 31°57' W 080°46'5 5.2
2016-Feb-04 04:33N 32°02' W 080°49'1 1.2
2016-Feb-04 03:33N 32°02' W 080°51'0 0.1
2016-Feb-04 02:33N 32°02' W 080°50'3 3.3
2016-Feb-04 01:33N 32°02' W 080°54'8 8.3
2016-Feb-04 00:33N 32°05' W 081°04'3 2.5
2016-Feb-03 23:30N 32°06' W 081°07'0 0.0
2016-Feb-03 22:33N 32°06' W 081°07'0 0.0
2016-Feb-03 21:33N 32°06' W 081°07'0 0.0
2016-Feb-03 20:30N 32°06' W 081°07'0 0.0
2016-Feb-03 19:33N 32°06' W 081°07'0 0.0
2016-Feb-03 18:30N 32°06' W 081°07'0 0.0
2016-Feb-03 17:33N 32°06' W 081°07'0 0.0
2016-Feb-03 16:33N 32°06' W 081°07'0 0.0
2016-Feb-03 15:33N 32°06' W 081°07'0 0.0
2016-Feb-03 14:33N 32°06' W 081°07'0 0.0
2016-Feb-03 13:33N 32°06' W 081°07'0 0.1
2016-Feb-03 12:33N 32°06' W 081°06'6 5.7
2016-Feb-03 11:33N 32°06' W 080°60'8 7.7
2016-Feb-03 10:33N 32°02' W 080°52'2 1.6
2016-Feb-03 09:33N 32°02' W 080°50'6 5.6
2016-Feb-03 08:33N 31°57' W 080°46'5 4.9
2016-Feb-03 07:33N 32°02' W 080°49'1 1.0
2016-Feb-03 06:33N 32°02' W 080°50'0 0.2
2016-Feb-03 05:33N 32°02' W 080°50'0 0.1
2016-Feb-03 04:33N 32°02' W 080°50'0 0.1
2016-Feb-03 03:33N 32°02' W 080°50'1 1.2
2016-Feb-03 02:33N 32°01' W 080°49'  
Track history (hours):
 
Tides and Currents Weather Stations Pressure Air Temp Water Temp Dewpoint Dewpoint Depression Visibility Wind Speed Wind Dir Waves Ship Positions

Padre Island

Owner: Great Lakes Dredge & Dock Company, Oak Brook, IL. More information available from US FCC via Universal Licensing System and Coast Guard Vessel Documentation Center.

Last reported at 2016-Feb-13 01:33 UTC. Time now 2016-Feb-14 23:10 UTC.
Position N 31°51' W 080°44'.

Length 86 m; draft 19.6 m.

Type: Dredging. MMSI: 367525000.

Date/timePositionNaut miles runAvg speedWind from/ knotsBaromVisibWave heightAir tempDewpointWater temp
2016-Feb-13 01:33N 31°51' W 080°44'6 6.0
2016-Feb-13 00:33N 31°57' W 080°46'6 6.2
2016-Feb-12 23:33N 32°02' W 080°50'0 0.2
2016-Feb-12 22:33N 32°02' W 080°50'0 0.2
2016-Feb-12 21:33N 32°02' W 080°50'0 0.2
2016-Feb-12 20:33N 32°02' W 080°50'0 0.1
2016-Feb-12 19:33N 32°02' W 080°50'0 0.2
2016-Feb-12 18:33N 32°02' W 080°50'0 0.1
2016-Feb-12 17:33N 32°02' W 080°50'6 5.5
2016-Feb-12 16:29N 31°58' W 080°46'0 0.3
2016-Feb-12 15:34N 31°58' W 080°46'6 5.6
2016-Feb-12 14:33N 32°02' W 080°50'0 0.3
2016-Feb-12 13:33N 32°02' W 080°50'1 0.8
2016-Feb-12 12:34N 32°02' W 080°50'1 1.4
2016-Feb-12 11:33N 32°01' W 080°48'3 3.3
2016-Feb-12 10:33N 31°59' W 080°46'5 5.2
2016-Feb-12 09:33N 32°02' W 080°50'0 0.2
2016-Feb-12 08:34N 32°02' W 080°50'1 1.0
2016-Feb-12 07:34N 32°02' W 080°49'0 0.5
2016-Feb-12 06:33N 32°02' W 080°50'0 0.2
2016-Feb-12 05:33N 32°02' W 080°50'0 0.5
2016-Feb-12 04:33N 32°02' W 080°51'7 6.7
2016-Feb-12 03:33N 31°57' W 080°46'6 6.1
2016-Feb-12 02:33N 32°02' W 080°50'0 0.2
2016-Feb-12 01:33N 32°02' W 080°50'0 0.1
2016-Feb-12 00:33N 32°02' W 080°50'0 0.2
2016-Feb-11 23:33N 32°02' W 080°50'0 0.2
2016-Feb-11 22:33N 32°02' W 080°50'2 1.9
2016-Feb-11 21:33N 32°01' W 080°49'4 4.4
2016-Feb-11 20:33N 31°57' W 080°46'6 6.2
2016-Feb-11 19:33N 32°02' W 080°51'1 0.9
2016-Feb-11 18:33N 32°02' W 080°50'0 0.3
2016-Feb-11 17:33N 32°02' W 080°50'0 0.5
2016-Feb-11 16:33N 32°02' W 080°50'0 0.1
2016-Feb-11 15:33N 32°02' W 080°50'0 0.3
2016-Feb-11 14:33N 32°02' W 080°50'0 0.2
2016-Feb-11 13:33N 32°02' W 080°50'6 6.2
2016-Feb-11 12:33N 31°57' W 080°46'6 6.1
2016-Feb-11 11:33N 32°02' W 080°50'0 0.1
2016-Feb-11 10:33N 32°02' W 080°50'0 0.3
2016-Feb-11 09:33N 32°02' W 080°50'0 0.2
2016-Feb-11 08:33N 32°02' W 080°50'1 0.8
2016-Feb-11 07:33N 32°02' W 080°50'0 0.4
2016-Feb-11 06:33N 32°02' W 080°50'0 0.2
2016-Feb-11 05:33N 32°02' W 080°50'1 1.2
2016-Feb-11 04:33N 32°02' W 080°49'5 4.7
2016-Feb-11 03:33N 31°58' W 080°46'6 5.8
2016-Feb-11 02:33N 32°02' W 080°50'0 0.3
2016-Feb-11 01:33N 32°02' W 080°51'1 0.8
2016-Feb-11 00:33N 32°02' W 080°50'0 0.3
2016-Feb-10 23:33N 32°02' W 080°50'4 4.2
2016-Feb-10 22:33N 31°59' W 080°47'1 0.6
2016-Feb-10 21:33N 31°60' W 080°47'4 3.7
2016-Feb-10 20:33N 32°02' W 080°50'0 0.2
2016-Feb-10 19:33N 32°02' W 080°50'0 0.0
2016-Feb-10 18:33N 32°02' W 080°50'1 0.6
2016-Feb-10 17:33N 32°02' W 080°50'0 0.1
2016-Feb-10 16:34N 32°02' W 080°49'3 3.2
2016-Feb-10 15:33N 31°60' W 080°47'2 1.7
2016-Feb-10 14:33N 31°58' W 080°46'5 5.5
2016-Feb-10 13:33N 32°02' W 080°50'1 0.6
2016-Feb-10 12:33N 32°02' W 080°49'0 0.3
2016-Feb-10 11:33N 32°02' W 080°50'0 0.1
2016-Feb-10 10:33N 32°02' W 080°50'3 3.5
2016-Feb-10 09:33N 31°60' W 080°47'2 2.4
2016-Feb-10 08:34N 31°57' W 080°46'4 4.2
2016-Feb-10 07:33N 32°01' W 080°48'1 1.4
2016-Feb-10 06:33N 32°02' W 080°50'1 0.6
2016-Feb-10 05:33N 32°02' W 080°50'1 0.8
2016-Feb-10 04:33N 32°02' W 080°49'0 0.4
2016-Feb-10 03:33N 32°02' W 080°50'0 0.1
2016-Feb-10 02:33N 32°02' W 080°50'5 4.9
2016-Feb-10 01:34N 31°59' W 080°46'1 0.7
2016-Feb-10 00:33N 31°59' W 080°46'5 4.6
2016-Feb-09 23:33N 32°02' W 080°51'1 0.7
2016-Feb-09 22:33N 32°02' W 080°50'1 0.6
2016-Feb-09 21:33N 32°02' W 080°51'0 0.4
2016-Feb-09 20:33N 32°02' W 080°50'4 4.4
2016-Feb-09 19:33N 31°59' W 080°46'0 0.1
2016-Feb-09 18:33N 31°59' W 080°46'4 3.8
2016-Feb-09 17:33N 32°02' W 080°49'0 0.5
2016-Feb-09 16:33N 32°02' W 080°50'0 0.1
2016-Feb-09 15:33N 32°02' W 080°50'0 0.3
2016-Feb-09 14:33N 32°02' W 080°50'6 5.5
2016-Feb-09 13:33N 31°57' W 080°46'6 5.6
2016-Feb-09 12:33N 32°02' W 080°50'0 0.1
2016-Feb-09 11:33N 32°02' W 080°50'0 0.2
2016-Feb-09 10:33N 32°02' W 080°50'0 0.2
2016-Feb-09 09:33N 32°02' W 080°50'5 5.2
2016-Feb-09 08:33N 31°59' W 080°45'2 2.0
2016-Feb-09 07:33N 32°00' W 080°47'3 2.6
2016-Feb-09 06:34N 32°02' W 080°49'0 0.4
2016-Feb-09 05:33N 32°02' W 080°50'0 0.3
2016-Feb-09 04:33N 32°02' W 080°50'4 3.6
2016-Feb-09 03:33N 31°60' W 080°47'0 0.4
2016-Feb-09 02:33N 31°60' W 080°47'4 3.6
2016-Feb-09 01:33N 32°02' W 080°50'0 0.1
2016-Feb-09 00:33N 32°02' W 080°50'3 2.7
2016-Feb-08 23:33N 32°00' W 080°47'0 0.5
2016-Feb-08 22:33N 32°00' W 080°48'3 2.9
2016-Feb-08 21:33N 32°02' W 080°50'0 0.2
2016-Feb-08 20:33N 32°02' W 080°50'0 0.2
2016-Feb-08 19:33N 32°02' W 080°50'5 4.7
2016-Feb-08 18:33N 31°59' W 080°46'3 2.7
2016-Feb-08 17:33N 31°56' W 080°46'2 1.5
2016-Feb-08 16:33N 31°58' W 080°46'6 5.8
2016-Feb-08 15:33N 32°02' W 080°50'0 0.3
2016-Feb-08 14:33N 32°02' W 080°50'1 1.0
2016-Feb-08 13:33N 32°02' W 080°49'5 4.8
2016-Feb-08 12:31N 31°57' W 080°46'6 6.1
2016-Feb-08 11:33N 32°02' W 080°50'0 0.5
2016-Feb-08 10:33N 32°02' W 080°50'1 0.8
2016-Feb-08 09:34N 32°02' W 080°50'0 0.2
2016-Feb-08 08:33N 32°02' W 080°50'3 2.8
2016-Feb-08 07:33N 32°00' W 080°47'2 2.1
2016-Feb-08 06:33N 31°59' W 080°46'5 5.3
2016-Feb-08 05:33N 32°02' W 080°50'0 0.0
2016-Feb-08 04:33N 32°02' W 080°50'0 0.2
2016-Feb-08 03:33N 32°02' W 080°50'0 0.2
2016-Feb-08 02:33N 32°02' W 080°50'6 5.6
2016-Feb-08 01:33N 31°57' W 080°46'6 5.6
2016-Feb-08 00:33N 32°02' W 080°50'0 0.3
2016-Feb-07 23:33N 32°02' W 080°50'0 0.5
2016-Feb-07 22:33N 32°02' W 080°51'0 0.1
2016-Feb-07 21:33N 32°02' W 080°51'6 6.4
2016-Feb-07 20:33N 31°57' W 080°47'2 2.0
2016-Feb-07 19:33N 31°59' W 080°46'5 5.3
2016-Feb-07 18:33N 32°02' W 080°50'1 1.0
2016-Feb-07 17:33N 32°02' W 080°49'0 0.5
2016-Feb-07 16:33N 32°02' W 080°50'0 0.1
2016-Feb-07 15:33N 32°02' W 080°50'6 5.5
2016-Feb-07 14:28N 31°57' W 080°46'5 5.7
2016-Feb-07 13:33N 32°02' W 080°49'1 1.0
2016-Feb-07 12:33N 32°02' W 080°50'0 0.4
2016-Feb-07 11:33N 32°02' W 080°50'1 1.3
2016-Feb-07 10:34N 32°02' W 080°49'5 5.1
2016-Feb-07 09:33N 31°57' W 080°46'4 3.7
2016-Feb-07 08:33N 32°01' W 080°48'3 2.8
2016-Feb-07 07:33N 32°02' W 080°51'1 0.6
2016-Feb-07 06:33N 32°02' W 080°50'0 0.1
2016-Feb-07 05:33N 32°02' W 080°50'6 5.1
2016-Feb-07 04:26N 31°58' W 080°46'4 4.4
2016-Feb-07 03:33N 32°01' W 080°48'2 2.2
2016-Feb-07 02:34N 32°02' W 080°50'0 0.3
2016-Feb-07 01:33N 32°02' W 080°50'6 5.8
2016-Feb-07 00:33N 31°58' W 080°46'5 4.6
2016-Feb-06 23:33N 32°01' W 080°49'1 0.9
2016-Feb-06 22:33N 32°02' W 080°50'0 0.2
2016-Feb-06 21:33N 32°02' W 080°50'4 4.3
2016-Feb-06 20:33N 31°59' W 080°46'1 0.8
2016-Feb-06 19:33N 31°59' W 080°46'5 5.2
2016-Feb-06 18:33N 32°02' W 080°50'0 0.2
2016-Feb-06 17:33N 32°02' W 080°50'1 0.6
2016-Feb-06 16:33N 32°02' W 080°50'6 5.6
2016-Feb-06 15:33N 31°57' W 080°46'6 5.9
2016-Feb-06 14:33N 32°02' W 080°50'0 0.4
2016-Feb-06 13:33N 32°02' W 080°50'0 0.0
2016-Feb-06 12:32N 32°02' W 080°50'5 5.1
2016-Feb-06 11:34N 31°59' W 080°46'3 2.6
2016-Feb-06 10:33N 32°01' W 080°48'2 1.9
2016-Feb-06 09:33N 32°02' W 080°50'0 0.4
2016-Feb-06 08:33N 32°02' W 080°50'0 0.0
2016-Feb-06 07:33N 32°02' W 080°50'4 4.3
2016-Feb-06 06:33N 31°59' W 080°46'1 1.3
2016-Feb-06 05:33N 32°00' W 080°48'3 3.2
2016-Feb-06 04:33N 32°02' W 080°50'0 0.1
2016-Feb-06 03:33N 32°02' W 080°50'3 3.4
2016-Feb-06 02:33N 31°60' W 080°47'4 4.1
2016-Feb-06 01:33N 31°56' W 080°47'0 0.3
2016-Feb-06 00:33N 31°56' W 080°47'3 2.9
2016-Feb-05 23:34N 31°57' W 080°44'2 2.0
2016-Feb-05 22:34N 31°57' W 080°46'6 5.6
2016-Feb-05 21:34N 32°02' W 080°50'1 1.0
2016-Feb-05 20:33N 32°02' W 080°51'0 0.1
2016-Feb-05 19:34N 32°02' W 080°51'0 0.2
2016-Feb-05 18:34N 32°02' W 080°50'6 5.5
2016-Feb-05 17:32N 31°58' W 080°46'4 3.8
2016-Feb-05 16:34N 32°01' W 080°48'2 2.2
2016-Feb-05 15:33N 32°02' W 080°51'0 0.1
2016-Feb-05 14:34N 32°02' W 080°50'4 4.2
2016-Feb-05 13:33N 31°59' W 080°47'1 0.7
2016-Feb-05 12:34N 31°59' W 080°46'4 4.3
2016-Feb-05 11:33N 32°02' W 080°50'1 0.8
2016-Feb-05 10:34N 32°02' W 080°51'1 1.5
2016-Feb-05 09:34N 32°02' W 080°49'0 0.1
2016-Feb-05 08:34N 32°02' W 080°49'5 5.1
2016-Feb-05 07:34N 31°57' W 080°46'6 5.7
2016-Feb-05 06:33N 32°02' W 080°50'0 0.1
2016-Feb-05 05:34N 32°02' W 080°50'0 0.3
2016-Feb-05 04:34N 32°02' W 080°50'5 4.9
2016-Feb-05 03:34N 31°59' W 080°46'3 2.7
2016-Feb-05 02:33N 32°01' W 080°48'2 2.4
2016-Feb-05 01:34N 32°02' W 080°51'0 0.4
2016-Feb-05 00:34N 32°02' W 080°50'4 4.0
2016-Feb-04 23:34N 31°59' W 080°47'0 0.3
2016-Feb-04 22:34N 31°59' W 080°47'4 3.9
2016-Feb-04 21:32N 32°02' W 080°50'0 0.5
2016-Feb-04 20:34N 32°02' W 080°51'0 0.2
2016-Feb-04 19:34N 32°02' W 080°51'6 6.0
2016-Feb-04 18:32N 31°57' W 080°46'3 3.6
2016-Feb-04 17:33N 32°01' W 080°48'3 2.6
2016-Feb-04 16:33N 32°02' W 080°50'0 0.5
2016-Feb-04 15:33N 32°02' W 080°50'6 1.0
2016-Feb-04 09:34N 31°57' W 080°46'5 5.4
2016-Feb-04 08:33N 32°02' W 080°49'1 0.6
2016-Feb-04 07:33N 32°02' W 080°50'0 0.3
2016-Feb-04 06:33N 32°02' W 080°50'6 6.0
2016-Feb-04 05:34N 31°57' W 080°46'5 5.2
2016-Feb-04 04:33N 32°02' W 080°49'1 1.2
2016-Feb-04 03:33N 32°02' W 080°51'0 0.1
2016-Feb-04 02:33N 32°02' W 080°50'3 3.3
2016-Feb-04 01:33N 32°02' W 080°54'8 8.3
2016-Feb-04 00:33N 32°05' W 081°04'3 2.5
2016-Feb-03 23:30N 32°06' W 081°07'0 0.0
2016-Feb-03 22:33N 32°06' W 081°07'0 0.0
2016-Feb-03 21:33N 32°06' W 081°07'0 0.0
2016-Feb-03 20:30N 32°06' W 081°07'0 0.0
2016-Feb-03 19:33N 32°06' W 081°07'0 0.0
2016-Feb-03 18:30N 32°06' W 081°07'0 0.0
2016-Feb-03 17:33N 32°06' W 081°07'0 0.0
2016-Feb-03 16:33N 32°06' W 081°07'0 0.0
2016-Feb-03 15:33N 32°06' W 081°07'0 0.0
2016-Feb-03 14:33N 32°06' W 081°07'0 0.0
2016-Feb-03 13:33N 32°06' W 081°07'0 0.1
2016-Feb-03 12:33N 32°06' W 081°06'6 5.7
2016-Feb-03 11:33N 32°06' W 080°60'8 7.7
2016-Feb-03 10:33N 32°02' W 080°52'2 1.6
2016-Feb-03 09:33N 32°02' W 080°50'6 5.6
2016-Feb-03 08:33N 31°57' W 080°46'5 4.9
2016-Feb-03 07:33N 32°02' W 080°49'1 1.0
2016-Feb-03 06:33N 32°02' W 080°50'0 0.2
2016-Feb-03 05:33N 32°02' W 080°50'0 0.1
2016-Feb-03 04:33N 32°02' W 080°50'0 0.1
2016-Feb-03 03:33N 32°02' W 080°50'1 1.2
2016-Feb-03 02:33N 32°01' W 080°49'  

Dump ship's entire track history